KEBS/EBS METAR and TAF weather

Enter ICAO airport designator
Station Type Date Time Source
KEBS METAR 2021/10/24 22:15 UTC NOAA

KEBS 242215Z AUTO 04017G24KT -RA OVC009 07/07 A2970 RMK AO2


Station Type Date Time Source
KEBS Decoded METAR 2021/10/24 22:15 UTC NOAA

Webster City, IA, United States (KEBS) 42-26N 093-52W
Oct 24, 2021 - 06:15 PM EDT / 2021.10.24 2215 UTC
Wind: from the NE (040 degrees) at 20 MPH (17 KT) gusting to 28 MPH (24 KT):0
Sky conditions: overcast
Weather: light rain
Temperature: 44 F (7 C)
Dew Point: 44 F (7 C)
Relative Humidity: 100%
Pressure (altimeter): 29.7 in. Hg (1005 hPa)
ob: KEBS 242215Z AUTO 04017G24KT -RA OVC009 07/07 A2970 RMK AO2
cycle: 22

Station Type Date Time Source
KEBS TAF UTC NOAA

Error!

Example: see airport list